Terminal Aerodrome Forecast
Issued by NWS Jackson, KY

Home | Current Version | Previous Version | Text Only | Print | Product List | Glossary On
Versions: 1 2 3 4 5 6 7 8 9 10 11 12 13 14 15
000
FTUS43 KJKL 252300
TAFJKL
TAF
KJKL 252340Z 2600/2624 VRB05KT P6SM -RA OVC050
     FM260100 18005KT 6SM -RA BR BKN050
     FM260600 23005KT 3SM RA OVC020
     FM261000 28003KT 2SM -RASN OVC008
     FM261400 30009KT 3SM -SHSN OVC006=

USA.gov is the U.S. government's official web portal to all federal, state and local government web resources and services.